createdAt,value
2019-03-12T00:01:01.992Z,85.44
2019-03-12T00:03:32.008Z,85.44
2019-03-12T00:06:01.818Z,86.17
2019-03-12T00:08:31.420Z,86.21
2019-03-12T00:11:01.204Z,86.29
2019-03-12T00:13:30.836Z,85.99
2019-03-12T00:16:00.480Z,85.79
2019-03-12T00:18:30.507Z,85.68
2019-03-12T00:21:00.134Z,86.33
2019-03-12T00:23:30.374Z,87.20
2019-03-12T00:26:00.089Z,86.93
2019-03-12T00:28:31.304Z,87.32
2019-03-12T00:31:01.264Z,87.10
2019-03-12T00:33:31.365Z,87.32
2019-03-12T00:36:01.013Z,87.11
2019-03-12T00:38:30.557Z,87.11
2019-03-12T00:41:00.140Z,87.45
2019-03-12T00:43:30.000Z,88.10
2019-03-12T00:45:59.759Z,88.10
2019-03-12T00:48:29.991Z,87.25
2019-03-12T00:51:02.158Z,87.34
2019-03-12T00:53:32.004Z,87.34
2019-03-12T00:56:01.662Z,87.24
2019-03-12T00:58:31.274Z,87.19
2019-03-12T01:01:01.065Z,86.60
2019-03-12T01:03:30.848Z,86.76
2019-03-12T01:06:00.545Z,86.71
2019-03-12T01:08:30.401Z,87.25
2019-03-12T01:11:00.056Z,87.25
2019-03-12T01:13:30.324Z,87.24
2019-03-12T01:16:01.121Z,87.46
2019-03-12T01:18:30.691Z,87.46
2019-03-12T01:21:00.363Z,87.93
2019-03-12T01:23:30.643Z,87.18
2019-03-12T01:26:00.771Z,87.08
2019-03-12T01:28:30.275Z,87.33
2019-03-12T01:30:59.883Z,87.68
2019-03-12T01:33:30.008Z,87.95
2019-03-12T01:35:59.638Z,87.95
2019-03-12T01:38:29.321Z,87.80
2019-03-12T01:40:59.062Z,87.71
2019-03-12T01:43:28.917Z,87.78
2019-03-12T01:45:58.699Z,87.74
2019-03-12T01:48:28.826Z,87.75
2019-03-12T01:50:58.573Z,87.88
2019-03-12T01:53:28.229Z,87.81
2019-03-12T01:55:57.743Z,88.15
2019-03-12T01:58:27.583Z,88.39
2019-03-12T02:00:57.715Z,88.36
2019-03-12T02:03:27.294Z,88.36
2019-03-12T02:05:56.882Z,88.72
2019-03-12T02:08:26.798Z,88.96
2019-03-12T02:10:56.355Z,88.79
2019-03-12T02:13:26.006Z,88.79
2019-03-12T02:15:56.076Z,89.11
2019-03-12T02:18:25.779Z,89.11
2019-03-12T02:20:55.481Z,89.36
2019-03-12T02:23:25.136Z,89.09
2019-03-12T02:25:54.759Z,89.13
2019-03-12T02:28:24.566Z,89.03
2019-03-12T02:30:54.398Z,88.95
2019-03-12T02:33:24.216Z,89.17
2019-03-12T02:35:53.925Z,88.74
2019-03-12T02:38:24.054Z,88.74
2019-03-12T02:40:53.719Z,89.58
2019-03-12T02:43:23.482Z,89.76
2019-03-12T02:45:53.279Z,89.90
2019-03-12T02:48:23.078Z,89.90
2019-03-12T02:50:52.818Z,90.09
2019-03-12T02:53:22.415Z,90.37
2019-03-12T02:55:52.091Z,90.00
2019-03-12T02:58:22.558Z,90.01
2019-03-12T03:00:52.304Z,89.92
2019-03-12T03:03:22.365Z,89.72
2019-03-12T03:06:11.065Z,89.21
2019-03-12T03:08:40.758Z,89.19
2019-03-12T03:11:10.644Z,89.09
2019-03-12T03:13:40.613Z,90.03
2019-03-12T03:16:10.823Z,90.03
2019-03-12T03:18:40.463Z,90.04
2019-03-12T03:21:09.985Z,89.92
2019-03-12T03:23:39.750Z,89.92
2019-03-12T03:26:09.779Z,90.78
2019-03-12T03:28:39.359Z,90.86
2019-03-12T03:31:10.825Z,90.93
2019-03-12T03:33:40.557Z,90.51
2019-03-12T03:36:11.265Z,90.51
2019-03-12T03:38:41.384Z,90.85
2019-03-12T03:41:14.269Z,90.76
2019-03-12T03:43:44.219Z,90.76
2019-03-12T03:46:14.525Z,90.56
2019-03-12T03:48:44.305Z,90.54
2019-03-12T03:51:14.935Z,90.54
2019-03-12T03:53:44.897Z,90.64
2019-03-12T03:56:14.676Z,90.14
2019-03-12T03:58:44.311Z,89.70
2019-03-12T04:01:14.220Z,89.55
2019-03-12T04:03:44.246Z,89.55
2019-03-12T04:06:14.011Z,89.43
2019-03-12T04:08:43.923Z,89.32
2019-03-12T04:11:13.845Z,89.08
2019-03-12T04:13:43.949Z,89.08
2019-03-12T04:16:13.719Z,89.14
2019-03-12T04:18:43.402Z,89.08
2019-03-12T04:21:13.002Z,88.56
2019-03-12T04:23:43.005Z,88.41
2019-03-12T04:26:12.673Z,88.50
2019-03-12T04:28:42.151Z,88.46
2019-03-12T04:31:11.963Z,88.46
2019-03-12T04:34:35.330Z,87.77
2019-03-12T04:37:06.710Z,88.12
2019-03-12T04:39:36.535Z,88.15
2019-03-12T04:42:06.246Z,87.93
2019-03-12T04:44:39.124Z,87.93
2019-03-12T04:47:13.169Z,88.13
2019-03-12T04:49:43.097Z,87.85
2019-03-12T04:52:14.112Z,87.24
2019-03-12T04:54:43.701Z,87.66
2019-03-12T04:57:13.116Z,87.69
2019-03-12T04:59:42.939Z,88.05
2019-03-12T05:02:12.718Z,88.05
2019-03-12T05:04:42.514Z,87.56
2019-03-12T05:07:12.055Z,87.28
2019-03-12T05:09:42.148Z,87.25
2019-03-12T05:12:12.568Z,87.30
2019-03-12T05:14:44.433Z,87.30
2019-03-12T05:17:24.360Z,87.36
2019-03-12T05:19:53.829Z,87.84
2019-03-12T05:22:25.022Z,87.91
2019-03-12T05:24:54.578Z,87.91
2019-03-12T05:27:25.096Z,87.78
2019-03-12T05:29:54.860Z,87.53
2019-03-12T05:32:27.455Z,87.38
2019-03-12T05:35:01.514Z,87.44
2019-03-12T05:37:31.000Z,87.61
2019-03-12T05:40:01.630Z,87.61
2019-03-12T05:42:31.338Z,87.56
2019-03-12T05:45:01.396Z,87.46
2019-03-12T05:47:31.172Z,87.46
2019-03-12T05:50:00.789Z,87.35
2019-03-12T05:52:30.964Z,87.35
2019-03-12T05:55:00.755Z,87.65
2019-03-12T05:57:30.319Z,87.85
2019-03-12T05:59:59.798Z,87.85
2019-03-12T06:02:29.416Z,87.26
2019-03-12T06:04:59.027Z,87.26
2019-03-12T06:07:29.297Z,87.69
2019-03-12T06:09:59.193Z,87.69
2019-03-12T06:12:29.370Z,87.37
2019-03-12T06:14:58.908Z,87.37
2019-03-12T06:17:29.080Z,87.24
2019-03-12T06:19:58.455Z,87.28
2019-03-12T06:22:28.300Z,87.39
2019-03-12T06:24:58.353Z,87.48
2019-03-12T06:27:27.827Z,87.48
2019-03-12T06:29:57.691Z,86.98
2019-03-12T06:32:37.452Z,87.14
2019-03-12T06:35:15.034Z,87.30
2019-03-12T06:38:09.112Z,86.93
2019-03-12T06:40:43.756Z,86.78
2019-03-12T06:43:31.098Z,86.88
2019-03-12T06:46:22.888Z,86.77
2019-03-12T06:49:09.911Z,86.55
2019-03-12T06:51:56.654Z,86.69
2019-03-12T06:54:57.239Z,86.69
2019-03-12T06:57:53.963Z,86.08
2019-03-12T07:00:43.614Z,86.08
2019-03-12T07:03:27.807Z,86.26
2019-03-12T07:06:17.055Z,85.89
2019-03-12T07:09:08.711Z,85.89
2019-03-12T07:11:51.716Z,85.47
2019-03-12T07:14:39.024Z,85.20
2019-03-12T07:17:15.018Z,84.58
2019-03-12T07:20:06.442Z,84.58
2019-03-12T07:22:47.335Z,83.74
2019-03-12T07:25:35.444Z,83.74
2019-03-12T07:28:23.308Z,83.83
2019-03-12T07:31:08.054Z,83.83
2019-03-12T07:33:46.627Z,83.80
2019-03-12T07:36:27.032Z,83.61
2019-03-12T07:39:04.636Z,83.57
2019-03-12T07:41:39.292Z,83.57
2019-03-12T07:44:26.249Z,83.76
2019-03-12T07:47:17.568Z,83.68
2019-03-12T07:50:11.937Z,82.01
2019-03-12T07:53:00.702Z,82.66
2019-03-12T07:55:45.180Z,82.08
2019-03-12T07:58:50.786Z,82.08
2019-03-12T08:01:39.383Z,81.62
2019-03-12T08:04:43.486Z,81.62
2019-03-12T08:07:34.432Z,81.65
2019-03-12T08:10:15.932Z,81.42
2019-03-12T08:13:02.747Z,81.42
2019-03-12T08:15:44.284Z,81.60
2019-03-12T08:18:35.502Z,81.16
2019-03-12T08:21:22.971Z,81.40
2019-03-12T08:24:06.240Z,80.65
2019-03-12T08:26:54.949Z,79.95
2019-03-12T08:29:46.511Z,80.53
2019-03-12T08:32:47.192Z,80.44
2019-03-12T08:35:50.815Z,79.80
2019-03-12T08:38:46.526Z,79.80
2019-03-12T08:41:38.249Z,80.64
2019-03-12T08:44:16.348Z,80.09
2019-03-12T08:47:05.259Z,79.65
2019-03-12T08:49:44.910Z,79.65
2019-03-12T08:52:40.103Z,78.40
2019-03-12T08:55:28.863Z,79.14
2019-03-12T08:58:08.498Z,79.14
2019-03-12T09:01:07.389Z,79.27
2019-03-12T09:04:03.417Z,77.87
2019-03-12T09:06:40.069Z,77.87
2019-03-12T09:09:28.793Z,78.58
2019-03-12T09:12:26.105Z,79.00
2019-03-12T09:15:14.999Z,78.58
2019-03-12T09:18:04.122Z,78.58
2019-03-12T09:20:44.307Z,78.14
2019-03-12T09:23:31.556Z,77.67
2019-03-12T09:26:11.393Z,77.67
2019-03-12T09:29:12.283Z,78.25
2019-03-12T09:31:59.707Z,77.44
2019-03-12T09:34:46.218Z,77.06
2019-03-12T09:37:36.600Z,76.88
2019-03-12T09:40:23.744Z,76.16
2019-03-12T09:43:14.118Z,76.16
2019-03-12T09:45:54.005Z,75.20
2019-03-12T09:48:41.102Z,74.64
2019-03-12T09:51:21.130Z,74.34
2019-03-12T09:54:26.579Z,72.24
2019-03-12T09:57:15.054Z,72.24
2019-03-12T10:00:15.609Z,72.60
2019-03-12T10:02:46.335Z,73.10
2019-03-12T10:05:23.700Z,73.10
2019-03-12T10:08:08.611Z,70.33
2019-03-12T10:10:57.196Z,69.99
2019-03-12T10:13:48.023Z,69.99
2019-03-12T10:16:35.377Z,69.76
2019-03-12T10:19:20.329Z,70.74
2019-03-12T10:22:13.905Z,70.74
2019-03-12T10:25:01.167Z,68.62
2019-03-12T10:27:49.876Z,68.62
2019-03-12T10:30:47.154Z,68.21
2019-03-12T10:33:41.532Z,67.57
2019-03-12T10:36:20.985Z,67.84
2019-03-12T10:39:42.316Z,67.60
2019-03-12T10:42:21.891Z,67.67
2019-03-12T10:45:00.987Z,66.02
2019-03-12T10:47:31.099Z,65.93
2019-03-12T10:50:00.988Z,65.69
2019-03-12T10:52:31.022Z,65.35
2019-03-12T10:55:12.413Z,64.39
2019-03-12T10:57:32.091Z,64.39
2019-03-12T11:00:02.020Z,63.39
2019-03-12T11:02:31.668Z,63.05
2019-03-12T11:05:01.196Z,62.15
2019-03-12T11:07:30.956Z,61.44
2019-03-12T11:10:00.513Z,61.44
2019-03-12T11:12:30.196Z,61.80
2019-03-12T11:14:59.815Z,60.81
2019-03-12T11:17:29.254Z,59.35
2019-03-12T11:19:59.666Z,59.35
2019-03-12T11:22:29.754Z,59.70
2019-03-12T11:24:59.220Z,58.53
2019-03-12T11:27:28.876Z,58.53
2019-03-12T11:29:59.142Z,58.42
2019-03-12T11:32:28.577Z,59.59
2019-03-12T11:34:58.615Z,58.44
2019-03-12T11:37:28.154Z,58.19
2019-03-12T11:39:57.977Z,59.17
2019-03-12T11:42:30.571Z,58.00
2019-03-12T11:45:13.616Z,58.17
2019-03-12T11:47:35.034Z,56.01
2019-03-12T11:50:06.341Z,56.01
2019-03-12T11:52:36.416Z,56.17
2019-03-12T11:55:06.851Z,56.30
2019-03-12T11:57:36.791Z,56.51
2019-03-12T12:00:07.944Z,55.77
2019-03-12T12:02:37.941Z,56.23
2019-03-12T12:05:08.414Z,56.63
2019-03-12T12:07:39.673Z,56.63
2019-03-12T12:10:12.231Z,54.68
2019-03-12T12:12:48.233Z,54.68
2019-03-12T12:15:19.095Z,54.85
2019-03-12T12:17:52.768Z,53.98
2019-03-12T12:20:29.510Z,54.64
2019-03-12T12:22:55.522Z,55.31
2019-03-12T12:25:25.303Z,56.93
2019-03-12T12:27:54.865Z,55.89
2019-03-12T12:30:25.112Z,55.89
2019-03-12T12:32:55.069Z,56.08
2019-03-12T12:35:24.583Z,55.56
2019-03-12T12:37:54.231Z,55.32
2019-03-12T12:40:24.739Z,54.31
2019-03-12T12:42:54.341Z,54.31
2019-03-12T12:45:24.935Z,54.97
2019-03-12T12:47:54.543Z,53.85
2019-03-12T12:50:24.888Z,54.18
2019-03-12T12:52:57.351Z,54.42
2019-03-12T12:55:26.864Z,54.85
2019-03-12T12:57:56.860Z,54.97
2019-03-12T13:00:26.574Z,54.67
2019-03-12T13:02:56.318Z,54.67
2019-03-12T13:05:26.122Z,54.61
2019-03-12T13:07:55.589Z,55.41
2019-03-12T13:10:26.147Z,55.08
2019-03-12T13:12:56.050Z,55.08
2019-03-12T13:15:26.605Z,55.15
2019-03-12T13:17:56.711Z,55.58
2019-03-12T13:20:30.195Z,54.44
2019-03-12T13:22:59.794Z,54.54
2019-03-12T13:25:29.256Z,53.85
2019-03-12T13:27:58.722Z,53.37
2019-03-12T13:30:28.539Z,53.98
2019-03-12T13:32:59.077Z,53.24
2019-03-12T13:35:29.017Z,53.37
2019-03-12T13:37:59.211Z,53.07
2019-03-12T13:40:30.241Z,53.72
2019-03-12T13:42:59.904Z,53.59
2019-03-12T13:45:29.990Z,53.59
2019-03-12T13:47:59.460Z,50.72
2019-03-12T13:50:29.213Z,50.72
2019-03-12T13:52:59.100Z,50.49
2019-03-12T13:55:28.938Z,50.75
2019-03-12T13:58:02.074Z,50.28
2019-03-12T14:00:33.486Z,51.15
2019-03-12T14:03:04.863Z,50.32
2019-03-12T14:05:44.937Z,49.81
2019-03-12T14:08:14.741Z,49.81
2019-03-12T14:10:44.455Z,51.59
2019-03-12T14:13:15.346Z,51.59
2019-03-12T14:15:47.450Z,51.82
2019-03-12T14:18:17.062Z,51.57
2019-03-12T14:20:52.610Z,51.76
2019-03-12T14:23:36.571Z,52.25
2019-03-12T14:26:06.227Z,51.79
2019-03-12T14:28:35.597Z,51.79
2019-03-12T14:31:05.377Z,52.50
2019-03-12T14:33:35.384Z,51.64
2019-03-12T14:36:04.914Z,51.36
2019-03-12T14:38:34.329Z,51.36
2019-03-12T14:41:06.386Z,52.28
2019-03-12T14:43:35.732Z,52.56
2019-03-12T14:46:05.846Z,52.56
2019-03-12T14:48:52.710Z,53.05
2019-03-12T14:51:51.674Z,53.05
2019-03-12T14:54:21.358Z,52.67
2019-03-12T14:56:51.502Z,52.00
2019-03-12T14:59:21.144Z,52.00
2019-03-12T15:01:51.282Z,51.96
2019-03-12T15:04:20.903Z,52.03
2019-03-12T15:06:50.725Z,53.09
2019-03-12T15:09:20.131Z,53.53
2019-03-12T15:11:49.543Z,52.11
2019-03-12T15:14:19.330Z,52.63
2019-03-12T15:16:51.719Z,52.30
2019-03-12T15:19:25.752Z,52.20
2019-03-12T15:21:57.880Z,51.95
2019-03-12T15:24:28.018Z,51.95
2019-03-12T15:26:57.649Z,52.16
2019-03-12T15:29:31.140Z,52.50
2019-03-12T15:32:04.503Z,52.50
2019-03-12T15:37:12.799Z,51.21
2019-03-12T15:39:46.377Z,51.18
2019-03-12T15:42:16.114Z,50.83
2019-03-12T15:44:45.577Z,50.83
2019-03-12T15:47:18.379Z,51.92
2019-03-12T15:49:50.206Z,51.92
2019-03-12T15:52:20.049Z,51.61
2019-03-12T15:54:49.481Z,51.61
2019-03-12T15:57:19.160Z,51.28
2019-03-12T15:59:48.966Z,51.28
2019-03-12T16:02:18.934Z,52.02
2019-03-12T16:04:48.930Z,50.92
2019-03-12T16:07:18.308Z,50.51
2019-03-12T16:09:48.051Z,50.51
2019-03-12T16:12:18.032Z,50.49
2019-03-12T16:14:47.726Z,50.42
2019-03-12T16:17:17.591Z,50.75
2019-03-12T16:19:47.179Z,49.74
2019-03-12T16:22:16.795Z,49.74
2019-03-12T16:24:47.097Z,50.29
2019-03-12T16:27:17.077Z,50.56
2019-03-12T16:29:47.109Z,49.84
2019-03-12T16:32:16.980Z,50.27
2019-03-12T16:34:46.435Z,50.27
2019-03-12T16:37:24.306Z,50.28
2019-03-12T16:39:54.141Z,49.87
2019-03-12T16:42:34.559Z,50.19
2019-03-12T16:44:55.098Z,50.29
2019-03-12T16:47:25.701Z,50.29
2019-03-12T16:49:59.973Z,50.96
2019-03-12T16:52:29.292Z,51.21
2019-03-12T16:54:58.740Z,51.13
2019-03-12T16:57:28.849Z,51.13
2019-03-12T16:59:59.102Z,50.59
2019-03-12T17:02:31.087Z,50.79
2019-03-12T17:05:03.899Z,50.78
2019-03-12T17:07:36.334Z,50.78
2019-03-12T17:10:07.127Z,50.53
2019-03-12T17:12:40.881Z,49.72
2019-03-12T17:15:11.807Z,49.72
2019-03-12T17:17:41.523Z,49.73
2019-03-12T17:20:12.174Z,50.16
2019-03-12T17:22:44.488Z,50.16
2019-03-12T17:25:14.289Z,49.59
2019-03-12T17:27:46.866Z,49.28
2019-03-12T17:30:17.819Z,49.28
2019-03-12T17:32:48.151Z,49.53
2019-03-12T17:35:20.286Z,48.62
2019-03-12T17:37:53.396Z,48.62
2019-03-12T17:40:30.425Z,49.01
2019-03-12T17:43:01.679Z,49.01
2019-03-12T17:45:32.620Z,48.46
2019-03-12T17:48:02.763Z,48.41
2019-03-12T17:50:34.239Z,48.41
2019-03-12T17:53:09.168Z,49.46
2019-03-12T17:55:39.683Z,48.32
2019-03-12T17:58:09.194Z,48.32
2019-03-12T18:00:42.225Z,49.00
2019-03-12T18:03:17.991Z,48.64
2019-03-12T18:05:47.139Z,48.64
2019-03-12T18:08:17.364Z,47.77
2019-03-12T18:10:50.343Z,48.71
2019-03-12T18:13:20.617Z,48.71
2019-03-12T18:15:50.183Z,47.18
2019-03-12T18:18:19.611Z,47.67
2019-03-12T18:20:55.093Z,47.40
2019-03-12T18:23:25.689Z,47.40
2019-03-12T18:25:56.078Z,47.97
2019-03-12T18:28:30.503Z,48.08
2019-03-12T18:31:00.247Z,47.17
2019-03-12T18:33:30.063Z,47.49
2019-03-12T18:36:08.835Z,47.32
2019-03-12T18:38:38.340Z,47.32
2019-03-12T18:41:15.203Z,47.60
2019-03-12T18:43:45.236Z,46.83
2019-03-12T18:46:15.190Z,46.58
2019-03-12T18:48:47.670Z,46.93
2019-03-12T18:51:17.385Z,46.03
2019-03-12T18:53:47.099Z,46.28
2019-03-12T18:56:16.755Z,46.28
2019-03-12T18:58:48.447Z,46.88
2019-03-12T19:01:21.224Z,46.88
2019-03-12T19:03:50.654Z,45.42
2019-03-12T19:06:23.604Z,45.42
2019-03-12T19:08:53.445Z,45.63
2019-03-12T19:11:23.194Z,45.21
2019-03-12T19:13:53.309Z,45.50
2019-03-12T19:16:24.962Z,45.50
2019-03-12T19:19:00.698Z,45.31
2019-03-12T19:21:30.578Z,45.18
2019-03-12T19:24:03.208Z,46.01
2019-03-12T19:26:35.669Z,44.30
2019-03-12T19:29:07.943Z,44.30
2019-03-12T19:32:07.695Z,44.83
2019-03-12T19:34:38.120Z,44.30
2019-03-12T19:37:16.990Z,44.30
2019-03-12T19:39:47.102Z,44.57
2019-03-12T19:42:16.978Z,46.03
2019-03-12T19:44:47.696Z,46.03
2019-03-12T19:47:20.293Z,49.18
2019-03-12T19:49:49.913Z,49.18
2019-03-12T19:52:23.095Z,49.79
2019-03-12T19:54:52.768Z,49.79
2019-03-12T19:57:22.294Z,53.75
2019-03-12T19:59:51.882Z,53.75
2019-03-12T20:02:21.456Z,57.21
2019-03-12T20:04:51.132Z,56.63
2019-03-12T20:07:20.613Z,56.63
2019-03-12T20:09:56.633Z,56.98
2019-03-12T20:13:12.369Z,56.03
2019-03-12T20:16:22.104Z,56.03
2019-03-12T20:19:20.992Z,56.51
2019-03-12T20:22:22.717Z,54.42
2019-03-12T20:25:35.996Z,54.42
2019-03-12T20:28:31.126Z,54.85
2019-03-12T20:31:43.258Z,54.29
2019-03-12T20:35:12.131Z,54.97
2019-03-12T20:38:19.175Z,57.12
2019-03-12T20:41:38.664Z,58.41
2019-03-12T20:44:58.721Z,58.41
2019-03-12T20:48:14.225Z,59.60
2019-03-12T20:51:31.491Z,60.43
2019-03-12T20:54:47.371Z,60.06
2019-03-12T20:58:06.353Z,59.11
2019-03-12T21:01:21.485Z,59.40
2019-03-12T21:04:38.084Z,59.40
2019-03-12T21:07:47.784Z,59.19
2019-03-12T21:11:01.837Z,59.19
2019-03-12T21:14:11.285Z,60.71
2019-03-12T21:17:21.844Z,61.22
2019-03-12T21:20:42.276Z,62.20
2019-03-12T21:23:22.366Z,63.82
2019-03-12T21:26:15.126Z,65.21
2019-03-12T21:29:35.062Z,68.59
2019-03-12T21:32:05.190Z,68.59
2019-03-12T21:34:37.157Z,71.96
2019-03-12T21:37:06.964Z,73.93
2019-03-12T21:39:36.725Z,76.51
2019-03-12T21:42:07.002Z,78.67
2019-03-12T21:44:38.091Z,83.17
2019-03-12T21:47:08.148Z,83.52
2019-03-12T21:49:39.641Z,82.53
2019-03-12T21:52:09.592Z,83.23
2019-03-12T21:54:39.733Z,83.31
2019-03-12T21:57:09.478Z,83.31
2019-03-12T21:59:41.768Z,84.01
2019-03-12T22:02:11.730Z,85.14
2019-03-12T22:04:41.185Z,85.14
2019-03-12T22:07:11.288Z,85.00
2019-03-12T22:09:40.897Z,85.43
2019-03-12T22:12:12.094Z,85.43
2019-03-12T22:14:41.707Z,84.87
2019-03-12T22:17:12.392Z,85.17
2019-03-12T22:19:41.959Z,86.02
2019-03-12T22:22:36.542Z,85.27
2019-03-12T22:25:08.498Z,86.33
2019-03-12T22:27:38.312Z,86.33
2019-03-12T22:30:12.018Z,86.29
2019-03-12T22:32:42.108Z,86.19
2019-03-12T22:35:12.104Z,86.46
2019-03-12T22:37:41.713Z,85.73
2019-03-12T22:40:12.121Z,87.25
2019-03-12T22:42:43.228Z,87.43
2019-03-12T22:45:12.812Z,87.25
2019-03-12T22:47:42.815Z,87.25
2019-03-12T22:50:12.599Z,86.77
2019-03-12T22:52:43.033Z,86.42
2019-03-12T22:55:12.849Z,87.01
2019-03-12T22:57:44.702Z,87.01
2019-03-12T23:00:15.563Z,85.50
2019-03-12T23:02:44.971Z,85.88
2019-03-12T23:05:14.576Z,85.88
2019-03-12T23:07:45.086Z,85.54
2019-03-12T23:10:14.899Z,85.64
2019-03-12T23:12:44.523Z,84.97
2019-03-12T23:15:14.394Z,84.97
2019-03-12T23:17:46.593Z,85.49
2019-03-12T23:20:16.388Z,85.69
2019-03-12T23:22:45.952Z,85.25
2019-03-12T23:25:16.316Z,85.23
2019-03-12T23:27:45.900Z,86.63
2019-03-12T23:30:15.934Z,86.55
2019-03-12T23:32:46.383Z,86.55
2019-03-12T23:35:16.134Z,86.10
2019-03-12T23:37:46.290Z,86.10
2019-03-12T23:40:16.043Z,86.66
2019-03-12T23:42:47.164Z,85.56
2019-03-12T23:45:18.218Z,85.56
2019-03-12T23:47:50.122Z,85.45
2019-03-12T23:50:19.586Z,84.90
2019-03-12T23:52:49.664Z,84.90
2019-03-12T23:55:19.942Z,84.83
2019-03-12T23:57:49.506Z,84.83
